sensor_id;sensor_type;location;lat;lon;timestamp;P1;durP1;ratioP1;P2;durP2;ratioP2
18102;SDS011;9178;51.120;6.192;2022-11-27T00:00:45;9.67;;;4.67;;
18102;SDS011;9178;51.120;6.192;2022-11-27T00:03:11;10.03;;;4.37;;
18102;SDS011;9178;51.120;6.192;2022-11-27T00:05:39;12.30;;;4.73;;
18102;SDS011;9178;51.120;6.192;2022-11-27T00:08:06;10.90;;;4.37;;
18102;SDS011;9178;51.120;6.192;2022-11-27T00:10:33;9.60;;;4.57;;
18102;SDS011;9178;51.120;6.192;2022-11-27T00:13:00;10.03;;;4.47;;
18102;SDS011;9178;51.120;6.192;2022-11-27T00:15:27;13.03;;;4.90;;
18102;SDS011;9178;51.120;6.192;2022-11-27T00:17:54;16.43;;;4.80;;
18102;SDS011;9178;51.120;6.192;2022-11-27T00:20:20;12.10;;;5.00;;
18102;SDS011;9178;51.120;6.192;2022-11-27T00:22:49;9.50;;;4.90;;
18102;SDS011;9178;51.120;6.192;2022-11-27T00:25:15;11.00;;;4.80;;
18102;SDS011;9178;51.120;6.192;2022-11-27T00:27:42;12.03;;;4.37;;
18102;SDS011;9178;51.120;6.192;2022-11-27T00:30:09;12.83;;;4.80;;
18102;SDS011;9178;51.120;6.192;2022-11-27T00:32:37;8.30;;;4.43;;
18102;SDS011;9178;51.120;6.192;2022-11-27T00:35:04;10.67;;;3.80;;
18102;SDS011;9178;51.120;6.192;2022-11-27T00:37:31;11.30;;;4.90;;
18102;SDS011;9178;51.120;6.192;2022-11-27T00:40:00;11.73;;;3.97;;
18102;SDS011;9178;51.120;6.192;2022-11-27T00:42:26;8.03;;;3.77;;
18102;SDS011;9178;51.120;6.192;2022-11-27T00:44:53;7.73;;;3.70;;
18102;SDS011;9178;51.120;6.192;2022-11-27T00:47:20;8.93;;;4.10;;
18102;SDS011;9178;51.120;6.192;2022-11-27T00:49:47;6.83;;;3.60;;
18102;SDS011;9178;51.120;6.192;2022-11-27T00:52:13;9.40;;;3.67;;
18102;SDS011;9178;51.120;6.192;2022-11-27T00:54:40;10.90;;;4.20;;
18102;SDS011;9178;51.120;6.192;2022-11-27T00:57:08;7.90;;;3.43;;
18102;SDS011;9178;51.120;6.192;2022-11-27T00:59:35;13.53;;;3.30;;
18102;SDS011;9178;51.120;6.192;2022-11-27T01:02:02;9.33;;;3.37;;
18102;SDS011;9178;51.120;6.192;2022-11-27T01:04:28;8.97;;;3.20;;
18102;SDS011;9178;51.120;6.192;2022-11-27T01:06:55;6.83;;;2.97;;
18102;SDS011;9178;51.120;6.192;2022-11-27T01:09:22;7.60;;;3.50;;
18102;SDS011;9178;51.120;6.192;2022-11-27T01:11:49;12.70;;;3.57;;
18102;SDS011;9178;51.120;6.192;2022-11-27T01:14:17;10.50;;;3.00;;
18102;SDS011;9178;51.120;6.192;2022-11-27T01:16:44;6.83;;;3.20;;
18102;SDS011;9178;51.120;6.192;2022-11-27T01:19:11;10.90;;;3.10;;
18102;SDS011;9178;51.120;6.192;2022-11-27T01:21:39;6.80;;;2.80;;
18102;SDS011;9178;51.120;6.192;2022-11-27T01:24:07;9.67;;;3.00;;
18102;SDS011;9178;51.120;6.192;2022-11-27T01:26:35;10.63;;;3.23;;
18102;SDS011;9178;51.120;6.192;2022-11-27T01:29:02;7.27;;;3.00;;
18102;SDS011;9178;51.120;6.192;2022-11-27T01:31:30;9.80;;;2.77;;
18102;SDS011;9178;51.120;6.192;2022-11-27T01:33:59;9.30;;;2.63;;
18102;SDS011;9178;51.120;6.192;2022-11-27T01:36:27;15.30;;;2.83;;
18102;SDS011;9178;51.120;6.192;2022-11-27T01:38:55;6.03;;;2.60;;
18102;SDS011;9178;51.120;6.192;2022-11-27T01:41:22;7.23;;;2.20;;
18102;SDS011;9178;51.120;6.192;2022-11-27T01:43:52;5.67;;;2.57;;
18102;SDS011;9178;51.120;6.192;2022-11-27T01:46:23;11.10;;;2.80;;
18102;SDS011;9178;51.120;6.192;2022-11-27T01:48:59;7.53;;;2.80;;
18102;SDS011;9178;51.120;6.192;2022-11-27T01:51:46;6.97;;;2.50;;
18102;SDS011;9178;51.120;6.192;2022-11-27T01:54:17;13.53;;;3.03;;
18102;SDS011;9178;51.120;6.192;2022-11-27T01:56:46;10.60;;;2.80;;
18102;SDS011;9178;51.120;6.192;2022-11-27T01:59:15;7.93;;;2.67;;
18102;SDS011;9178;51.120;6.192;2022-11-27T02:01:43;12.90;;;2.83;;
18102;SDS011;9178;51.120;6.192;2022-11-27T02:04:11;10.03;;;2.30;;
18102;SDS011;9178;51.120;6.192;2022-11-27T02:06:38;13.23;;;2.30;;
18102;SDS011;9178;51.120;6.192;2022-11-27T02:09:04;6.10;;;2.37;;
18102;SDS011;9178;51.120;6.192;2022-11-27T02:11:33;9.53;;;2.67;;
18102;SDS011;9178;51.120;6.192;2022-11-27T02:14:08;4.87;;;2.07;;
18102;SDS011;9178;51.120;6.192;2022-11-27T02:16:40;9.93;;;2.37;;
18102;SDS011;9178;51.120;6.192;2022-11-27T02:19:24;9.30;;;2.80;;
18102;SDS011;9178;51.120;6.192;2022-11-27T02:21:59;8.00;;;2.20;;
18102;SDS011;9178;51.120;6.192;2022-11-27T02:24:32;10.73;;;2.73;;
18102;SDS011;9178;51.120;6.192;2022-11-27T02:27:27;9.93;;;3.33;;
18102;SDS011;9178;51.120;6.192;2022-11-27T02:30:09;9.43;;;2.73;;
18102;SDS011;9178;51.120;6.192;2022-11-27T02:32:37;10.20;;;2.97;;
18102;SDS011;9178;51.120;6.192;2022-11-27T02:35:07;7.90;;;3.00;;
18102;SDS011;9178;51.120;6.192;2022-11-27T02:37:40;6.70;;;2.77;;
18102;SDS011;9178;51.120;6.192;2022-11-27T02:40:12;12.37;;;3.20;;
18102;SDS011;9178;51.120;6.192;2022-11-27T02:42:44;7.37;;;2.97;;
18102;SDS011;9178;51.120;6.192;2022-11-27T02:45:17;9.57;;;2.70;;
18102;SDS011;9178;51.120;6.192;2022-11-27T02:47:48;6.80;;;3.00;;
18102;SDS011;9178;51.120;6.192;2022-11-27T02:50:17;11.93;;;3.50;;
18102;SDS011;9178;51.120;6.192;2022-11-27T02:52:47;13.87;;;3.83;;
18102;SDS011;9178;51.120;6.192;2022-11-27T02:55:16;8.10;;;3.67;;
18102;SDS011;9178;51.120;6.192;2022-11-27T02:57:47;12.07;;;3.57;;
18102;SDS011;9178;51.120;6.192;2022-11-27T03:00:20;8.93;;;3.00;;
18102;SDS011;9178;51.120;6.192;2022-11-27T03:02:48;8.70;;;3.67;;
18102;SDS011;9178;51.120;6.192;2022-11-27T03:05:19;10.60;;;3.80;;
18102;SDS011;9178;51.120;6.192;2022-11-27T03:07:50;9.77;;;3.93;;
18102;SDS011;9178;51.120;6.192;2022-11-27T03:10:23;8.07;;;3.87;;
18102;SDS011;9178;51.120;6.192;2022-11-27T03:12:55;9.07;;;3.90;;
18102;SDS011;9178;51.120;6.192;2022-11-27T03:15:25;12.37;;;4.60;;
18102;SDS011;9178;51.120;6.192;2022-11-27T03:18:00;10.60;;;4.60;;
18102;SDS011;9178;51.120;6.192;2022-11-27T03:20:35;9.63;;;4.30;;
18102;SDS011;9178;51.120;6.192;2022-11-27T03:23:06;7.10;;;4.13;;
18102;SDS011;9178;51.120;6.192;2022-11-27T03:25:32;10.57;;;4.60;;
18102;SDS011;9178;51.120;6.192;2022-11-27T03:28:00;10.60;;;4.77;;
18102;SDS011;9178;51.120;6.192;2022-11-27T03:30:31;9.97;;;4.70;;
18102;SDS011;9178;51.120;6.192;2022-11-27T03:32:58;12.00;;;4.70;;
18102;SDS011;9178;51.120;6.192;2022-11-27T03:35:26;7.57;;;3.80;;
18102;SDS011;9178;51.120;6.192;2022-11-27T03:37:55;12.03;;;4.70;;
18102;SDS011;9178;51.120;6.192;2022-11-27T03:40:22;8.77;;;4.83;;
18102;SDS011;9178;51.120;6.192;2022-11-27T03:42:55;9.20;;;4.57;;
18102;SDS011;9178;51.120;6.192;2022-11-27T03:45:29;10.23;;;4.90;;
18102;SDS011;9178;51.120;6.192;2022-11-27T03:48:09;10.90;;;5.20;;
18102;SDS011;9178;51.120;6.192;2022-11-27T03:50:50;11.33;;;4.70;;
18102;SDS011;9178;51.120;6.192;2022-11-27T03:53:27;9.67;;;4.70;;
18102;SDS011;9178;51.120;6.192;2022-11-27T03:56:01;13.10;;;5.27;;
18102;SDS011;9178;51.120;6.192;2022-11-27T03:58:33;10.87;;;5.10;;
18102;SDS011;9178;51.120;6.192;2022-11-27T04:01:04;10.33;;;5.07;;
18102;SDS011;9178;51.120;6.192;2022-11-27T04:03:35;7.97;;;4.63;;
18102;SDS011;9178;51.120;6.192;2022-11-27T04:06:02;12.90;;;4.93;;
18102;SDS011;9178;51.120;6.192;2022-11-27T04:08:29;11.43;;;4.60;;
18102;SDS011;9178;51.120;6.192;2022-11-27T04:10:56;8.43;;;5.00;;
18102;SDS011;9178;51.120;6.192;2022-11-27T04:13:23;9.17;;;4.93;;
18102;SDS011;9178;51.120;6.192;2022-11-27T04:15:50;10.23;;;4.73;;
18102;SDS011;9178;51.120;6.192;2022-11-27T04:18:18;10.93;;;4.83;;
18102;SDS011;9178;51.120;6.192;2022-11-27T04:20:45;13.67;;;5.53;;
18102;SDS011;9178;51.120;6.192;2022-11-27T04:23:12;8.90;;;5.30;;
18102;SDS011;9178;51.120;6.192;2022-11-27T04:25:38;10.50;;;4.53;;
18102;SDS011;9178;51.120;6.192;2022-11-27T04:28:05;9.87;;;4.70;;
18102;SDS011;9178;51.120;6.192;2022-11-27T04:30:32;10.47;;;4.93;;
18102;SDS011;9178;51.120;6.192;2022-11-27T04:33:00;11.80;;;4.83;;
18102;SDS011;9178;51.120;6.192;2022-11-27T04:35:28;12.67;;;5.23;;
18102;SDS011;9178;51.120;6.192;2022-11-27T04:37:55;13.67;;;5.67;;
18102;SDS011;9178;51.120;6.192;2022-11-27T04:40:22;8.63;;;4.67;;
18102;SDS011;9178;51.120;6.192;2022-11-27T04:42:49;11.63;;;4.57;;
18102;SDS011;9178;51.120;6.192;2022-11-27T04:45:16;11.73;;;4.43;;
18102;SDS011;9178;51.120;6.192;2022-11-27T04:47:43;10.60;;;4.73;;
18102;SDS011;9178;51.120;6.192;2022-11-27T04:50:10;8.50;;;5.37;;
18102;SDS011;9178;51.120;6.192;2022-11-27T04:52:38;10.83;;;5.63;;
18102;SDS011;9178;51.120;6.192;2022-11-27T04:55:05;10.53;;;5.73;;
18102;SDS011;9178;51.120;6.192;2022-11-27T04:57:32;10.13;;;5.00;;
18102;SDS011;9178;51.120;6.192;2022-11-27T04:59:59;8.40;;;4.77;;
18102;SDS011;9178;51.120;6.192;2022-11-27T05:02:27;6.70;;;4.80;;
18102;SDS011;9178;51.120;6.192;2022-11-27T05:04:54;9.23;;;4.90;;
18102;SDS011;9178;51.120;6.192;2022-11-27T05:07:21;9.17;;;4.90;;
18102;SDS011;9178;51.120;6.192;2022-11-27T05:09:49;9.43;;;5.60;;
18102;SDS011;9178;51.120;6.192;2022-11-27T05:12:16;7.87;;;4.60;;
18102;SDS011;9178;51.120;6.192;2022-11-27T05:14:43;11.13;;;5.40;;
18102;SDS011;9178;51.120;6.192;2022-11-27T05:17:10;11.77;;;4.80;;
18102;SDS011;9178;51.120;6.192;2022-11-27T05:19:37;9.10;;;4.80;;
18102;SDS011;9178;51.120;6.192;2022-11-27T05:22:03;13.37;;;4.97;;
18102;SDS011;9178;51.120;6.192;2022-11-27T05:24:31;10.60;;;4.97;;
18102;SDS011;9178;51.120;6.192;2022-11-27T05:26:59;11.83;;;4.97;;
18102;SDS011;9178;51.120;6.192;2022-11-27T05:29:26;9.77;;;4.97;;
18102;SDS011;9178;51.120;6.192;2022-11-27T05:31:54;9.50;;;5.20;;
18102;SDS011;9178;51.120;6.192;2022-11-27T05:34:21;8.67;;;4.57;;
18102;SDS011;9178;51.120;6.192;2022-11-27T05:36:48;8.33;;;4.57;;
18102;SDS011;9178;51.120;6.192;2022-11-27T05:39:15;9.90;;;4.63;;
18102;SDS011;9178;51.120;6.192;2022-11-27T05:41:41;9.40;;;4.60;;
18102;SDS011;9178;51.120;6.192;2022-11-27T05:44:11;11.10;;;5.23;;
18102;SDS011;9178;51.120;6.192;2022-11-27T05:46:39;10.57;;;4.93;;
18102;SDS011;9178;51.120;6.192;2022-11-27T05:49:08;9.97;;;4.70;;
18102;SDS011;9178;51.120;6.192;2022-11-27T05:51:36;7.73;;;4.57;;
18102;SDS011;9178;51.120;6.192;2022-11-27T05:54:03;8.77;;;4.27;;
18102;SDS011;9178;51.120;6.192;2022-11-27T05:56:30;10.97;;;4.47;;
18102;SDS011;9178;51.120;6.192;2022-11-27T05:58:56;10.03;;;4.70;;
18102;SDS011;9178;51.120;6.192;2022-11-27T06:01:25;14.43;;;4.67;;
18102;SDS011;9178;51.120;6.192;2022-11-27T06:03:51;9.97;;;4.77;;
18102;SDS011;9178;51.120;6.192;2022-11-27T06:06:18;9.87;;;4.60;;
18102;SDS011;9178;51.120;6.192;2022-11-27T06:08:46;11.00;;;4.73;;
18102;SDS011;9178;51.120;6.192;2022-11-27T06:11:13;11.57;;;5.07;;
18102;SDS011;9178;51.120;6.192;2022-11-27T06:13:42;8.70;;;4.70;;
18102;SDS011;9178;51.120;6.192;2022-11-27T06:16:11;7.37;;;4.67;;
18102;SDS011;9178;51.120;6.192;2022-11-27T06:18:41;11.20;;;4.80;;
18102;SDS011;9178;51.120;6.192;2022-11-27T06:21:09;9.83;;;4.67;;
18102;SDS011;9178;51.120;6.192;2022-11-27T06:23:37;10.70;;;4.63;;
18102;SDS011;9178;51.120;6.192;2022-11-27T06:26:10;11.07;;;5.10;;
18102;SDS011;9178;51.120;6.192;2022-11-27T06:28:38;8.67;;;4.57;;
18102;SDS011;9178;51.120;6.192;2022-11-27T06:31:06;10.80;;;4.73;;
18102;SDS011;9178;51.120;6.192;2022-11-27T06:33:33;8.50;;;4.70;;
18102;SDS011;9178;51.120;6.192;2022-11-27T06:36:02;10.87;;;4.93;;
18102;SDS011;9178;51.120;6.192;2022-11-27T06:38:30;8.73;;;4.93;;
18102;SDS011;9178;51.120;6.192;2022-11-27T06:41:00;11.57;;;5.03;;
18102;SDS011;9178;51.120;6.192;2022-11-27T06:43:27;10.10;;;4.30;;
18102;SDS011;9178;51.120;6.192;2022-11-27T06:45:55;8.80;;;4.60;;
18102;SDS011;9178;51.120;6.192;2022-11-27T06:48:22;8.00;;;4.50;;
18102;SDS011;9178;51.120;6.192;2022-11-27T06:50:49;6.70;;;4.67;;
18102;SDS011;9178;51.120;6.192;2022-11-27T06:53:17;8.73;;;4.37;;
18102;SDS011;9178;51.120;6.192;2022-11-27T06:55:44;7.80;;;4.27;;
18102;SDS011;9178;51.120;6.192;2022-11-27T06:58:11;11.73;;;4.90;;
18102;SDS011;9178;51.120;6.192;2022-11-27T07:00:38;11.70;;;4.47;;
18102;SDS011;9178;51.120;6.192;2022-11-27T07:03:04;7.10;;;4.23;;
18102;SDS011;9178;51.120;6.192;2022-11-27T07:05:31;7.43;;;4.50;;
18102;SDS011;9178;51.120;6.192;2022-11-27T07:07:58;8.30;;;4.73;;
18102;SDS011;9178;51.120;6.192;2022-11-27T07:10:26;10.40;;;4.70;;
18102;SDS011;9178;51.120;6.192;2022-11-27T07:12:53;10.27;;;4.87;;
18102;SDS011;9178;51.120;6.192;2022-11-27T07:15:20;10.13;;;4.80;;
18102;SDS011;9178;51.120;6.192;2022-11-27T07:17:47;11.67;;;4.70;;
18102;SDS011;9178;51.120;6.192;2022-11-27T07:20:14;8.87;;;4.97;;
18102;SDS011;9178;51.120;6.192;2022-11-27T07:22:40;10.33;;;5.00;;
18102;SDS011;9178;51.120;6.192;2022-11-27T07:25:08;8.40;;;4.40;;
18102;SDS011;9178;51.120;6.192;2022-11-27T07:27:36;9.33;;;4.50;;
18102;SDS011;9178;51.120;6.192;2022-11-27T07:30:03;10.47;;;5.07;;
18102;SDS011;9178;51.120;6.192;2022-11-27T07:32:31;12.30;;;5.70;;
18102;SDS011;9178;51.120;6.192;2022-11-27T07:34:58;12.27;;;4.90;;
18102;SDS011;9178;51.120;6.192;2022-11-27T07:37:25;8.83;;;4.43;;
18102;SDS011;9178;51.120;6.192;2022-11-27T07:39:51;11.33;;;5.03;;
18102;SDS011;9178;51.120;6.192;2022-11-27T07:42:18;10.83;;;5.13;;
18102;SDS011;9178;51.120;6.192;2022-11-27T07:44:46;11.33;;;5.20;;
18102;SDS011;9178;51.120;6.192;2022-11-27T07:47:13;8.90;;;4.47;;
18102;SDS011;9178;51.120;6.192;2022-11-27T07:49:40;7.43;;;5.00;;
18102;SDS011;9178;51.120;6.192;2022-11-27T07:52:07;8.60;;;4.80;;
18102;SDS011;9178;51.120;6.192;2022-11-27T07:54:33;9.73;;;4.50;;
18102;SDS011;9178;51.120;6.192;2022-11-27T07:57:00;8.03;;;4.37;;
18102;SDS011;9178;51.120;6.192;2022-11-27T07:59:27;9.40;;;4.33;;
18102;SDS011;9178;51.120;6.192;2022-11-27T08:01:56;8.63;;;4.47;;
18102;SDS011;9178;51.120;6.192;2022-11-27T08:04:22;8.07;;;4.47;;
18102;SDS011;9178;51.120;6.192;2022-11-27T08:06:49;9.37;;;4.60;;
18102;SDS011;9178;51.120;6.192;2022-11-27T08:09:16;9.40;;;4.23;;
18102;SDS011;9178;51.120;6.192;2022-11-27T08:11:43;9.20;;;4.63;;
18102;SDS011;9178;51.120;6.192;2022-11-27T08:14:09;8.03;;;3.67;;
18102;SDS011;9178;51.120;6.192;2022-11-27T08:16:38;6.03;;;4.30;;
18102;SDS011;9178;51.120;6.192;2022-11-27T08:19:06;7.90;;;4.53;;
18102;SDS011;9178;51.120;6.192;2022-11-27T08:21:34;6.07;;;3.63;;
18102;SDS011;9178;51.120;6.192;2022-11-27T08:24:01;8.37;;;4.17;;
18102;SDS011;9178;51.120;6.192;2022-11-27T08:26:28;7.03;;;3.87;;
18102;SDS011;9178;51.120;6.192;2022-11-27T08:28:56;8.37;;;4.23;;
18102;SDS011;9178;51.120;6.192;2022-11-27T08:31:22;8.53;;;4.07;;
18102;SDS011;9178;51.120;6.192;2022-11-27T08:33:50;7.83;;;4.27;;
18102;SDS011;9178;51.120;6.192;2022-11-27T08:36:18;7.77;;;4.53;;
18102;SDS011;9178;51.120;6.192;2022-11-27T08:38:45;8.80;;;4.20;;
18102;SDS011;9178;51.120;6.192;2022-11-27T08:41:14;9.93;;;4.37;;
18102;SDS011;9178;51.120;6.192;2022-11-27T08:43:41;6.87;;;4.07;;
18102;SDS011;9178;51.120;6.192;2022-11-27T08:46:08;6.60;;;4.47;;
18102;SDS011;9178;51.120;6.192;2022-11-27T08:48:35;9.00;;;4.30;;
18102;SDS011;9178;51.120;6.192;2022-11-27T08:51:03;6.70;;;3.60;;
18102;SDS011;9178;51.120;6.192;2022-11-27T08:53:33;8.33;;;4.90;;
18102;SDS011;9178;51.120;6.192;2022-11-27T08:56:03;7.17;;;4.73;;
18102;SDS011;9178;51.120;6.192;2022-11-27T08:58:31;7.57;;;4.40;;
18102;SDS011;9178;51.120;6.192;2022-11-27T09:00:58;6.20;;;3.80;;
18102;SDS011;9178;51.120;6.192;2022-11-27T09:03:31;5.53;;;4.10;;
18102;SDS011;9178;51.120;6.192;2022-11-27T09:05:58;7.60;;;4.10;;
18102;SDS011;9178;51.120;6.192;2022-11-27T09:08:24;5.67;;;3.70;;
18102;SDS011;9178;51.120;6.192;2022-11-27T09:10:53;6.23;;;3.53;;
18102;SDS011;9178;51.120;6.192;2022-11-27T09:13:19;8.47;;;5.70;;
18102;SDS011;9178;51.120;6.192;2022-11-27T09:15:46;10.33;;;6.27;;
18102;SDS011;9178;51.120;6.192;2022-11-27T09:18:13;9.43;;;4.33;;
18102;SDS011;9178;51.120;6.192;2022-11-27T09:20:40;6.27;;;3.80;;
18102;SDS011;9178;51.120;6.192;2022-11-27T09:23:06;6.73;;;3.67;;
18102;SDS011;9178;51.120;6.192;2022-11-27T09:25:33;7.83;;;3.63;;
18102;SDS011;9178;51.120;6.192;2022-11-27T09:28:04;6.50;;;3.67;;
18102;SDS011;9178;51.120;6.192;2022-11-27T09:30:31;9.43;;;4.70;;
18102;SDS011;9178;51.120;6.192;2022-11-27T09:32:57;7.03;;;3.60;;
18102;SDS011;9178;51.120;6.192;2022-11-27T09:35:26;6.97;;;3.97;;
18102;SDS011;9178;51.120;6.192;2022-11-27T09:37:52;7.37;;;4.07;;
18102;SDS011;9178;51.120;6.192;2022-11-27T09:40:19;6.50;;;3.57;;
18102;SDS011;9178;51.120;6.192;2022-11-27T09:42:47;5.43;;;3.73;;
18102;SDS011;9178;51.120;6.192;2022-11-27T09:45:20;6.83;;;3.60;;
18102;SDS011;9178;51.120;6.192;2022-11-27T09:47:51;7.50;;;4.33;;
18102;SDS011;9178;51.120;6.192;2022-11-27T09:50:22;4.67;;;3.27;;
18102;SDS011;9178;51.120;6.192;2022-11-27T09:52:53;3.97;;;3.03;;
18102;SDS011;9178;51.120;6.192;2022-11-27T09:55:23;5.83;;;3.47;;
18102;SDS011;9178;51.120;6.192;2022-11-27T09:57:57;4.93;;;3.73;;
18102;SDS011;9178;51.120;6.192;2022-11-27T10:00:29;6.87;;;3.33;;
18102;SDS011;9178;51.120;6.192;2022-11-27T10:02:56;7.37;;;3.90;;
18102;SDS011;9178;51.120;6.192;2022-11-27T10:05:23;6.87;;;3.20;;
18102;SDS011;9178;51.120;6.192;2022-11-27T10:08:03;5.67;;;3.07;;
18102;SDS011;9178;51.120;6.192;2022-11-27T10:10:59;6.57;;;3.27;;
18102;SDS011;9178;51.120;6.192;2022-11-27T10:13:39;6.07;;;4.10;;
18102;SDS011;9178;51.120;6.192;2022-11-27T10:16:22;6.40;;;3.90;;
18102;SDS011;9178;51.120;6.192;2022-11-27T10:18:56;4.27;;;3.20;;
18102;SDS011;9178;51.120;6.192;2022-11-27T10:21:33;5.80;;;3.00;;
18102;SDS011;9178;51.120;6.192;2022-11-27T10:24:09;6.57;;;3.30;;
18102;SDS011;9178;51.120;6.192;2022-11-27T10:26:44;4.93;;;3.20;;
18102;SDS011;9178;51.120;6.192;2022-11-27T10:29:16;5.63;;;3.20;;
18102;SDS011;9178;51.120;6.192;2022-11-27T10:31:56;7.00;;;4.23;;
18102;SDS011;9178;51.120;6.192;2022-11-27T10:34:36;5.03;;;3.50;;
18102;SDS011;9178;51.120;6.192;2022-11-27T10:37:06;5.50;;;3.60;;
18102;SDS011;9178;51.120;6.192;2022-11-27T10:39:39;7.73;;;4.23;;
18102;SDS011;9178;51.120;6.192;2022-11-27T10:42:11;5.33;;;4.10;;
18102;SDS011;9178;51.120;6.192;2022-11-27T10:44:43;5.63;;;3.50;;
18102;SDS011;9178;51.120;6.192;2022-11-27T10:47:15;4.33;;;2.90;;
18102;SDS011;9178;51.120;6.192;2022-11-27T10:49:43;4.70;;;2.90;;
18102;SDS011;9178;51.120;6.192;2022-11-27T10:52:13;4.13;;;3.00;;
18102;SDS011;9178;51.120;6.192;2022-11-27T10:54:41;3.70;;;2.80;;
18102;SDS011;9178;51.120;6.192;2022-11-27T10:57:13;6.43;;;3.13;;
18102;SDS011;9178;51.120;6.192;2022-11-27T10:59:56;4.97;;;3.40;;
18102;SDS011;9178;51.120;6.192;2022-11-27T11:02:31;6.70;;;3.87;;
18102;SDS011;9178;51.120;6.192;2022-11-27T11:05:08;3.97;;;2.77;;
18102;SDS011;9178;51.120;6.192;2022-11-27T11:07:36;5.13;;;3.33;;
18102;SDS011;9178;51.120;6.192;2022-11-27T11:10:04;6.23;;;3.63;;
18102;SDS011;9178;51.120;6.192;2022-11-27T11:12:47;4.60;;;2.40;;
18102;SDS011;9178;51.120;6.192;2022-11-27T11:15:14;5.70;;;2.80;;
18102;SDS011;9178;51.120;6.192;2022-11-27T11:17:43;8.10;;;3.37;;
18102;SDS011;9178;51.120;6.192;2022-11-27T11:20:14;2.60;;;2.40;;
18102;SDS011;9178;51.120;6.192;2022-11-27T11:22:44;4.13;;;2.80;;
18102;SDS011;9178;51.120;6.192;2022-11-27T11:25:13;3.60;;;2.27;;
18102;SDS011;9178;51.120;6.192;2022-11-27T11:27:42;3.00;;;2.70;;
18102;SDS011;9178;51.120;6.192;2022-11-27T11:30:18;4.33;;;2.93;;
18102;SDS011;9178;51.120;6.192;2022-11-27T11:32:48;4.07;;;3.00;;
18102;SDS011;9178;51.120;6.192;2022-11-27T11:35:23;3.03;;;2.73;;
18102;SDS011;9178;51.120;6.192;2022-11-27T11:37:53;5.00;;;3.07;;
18102;SDS011;9178;51.120;6.192;2022-11-27T11:40:22;2.67;;;2.30;;
18102;SDS011;9178;51.120;6.192;2022-11-27T11:42:54;5.03;;;2.77;;
18102;SDS011;9178;51.120;6.192;2022-11-27T11:45:23;4.50;;;2.77;;
18102;SDS011;9178;51.120;6.192;2022-11-27T11:47:53;5.27;;;3.43;;
18102;SDS011;9178;51.120;6.192;2022-11-27T11:50:26;3.73;;;2.60;;
18102;SDS011;9178;51.120;6.192;2022-11-27T11:52:58;4.33;;;2.20;;
18102;SDS011;9178;51.120;6.192;2022-11-27T11:55:31;4.17;;;2.20;;
18102;SDS011;9178;51.120;6.192;2022-11-27T12:01:13;3.27;;;2.00;;
18102;SDS011;9178;51.120;6.192;2022-11-27T12:03:59;5.87;;;2.33;;
18102;SDS011;9178;51.120;6.192;2022-11-27T12:06:39;5.00;;;2.33;;
18102;SDS011;9178;51.120;6.192;2022-11-27T12:09:24;3.70;;;1.90;;
18102;SDS011;9178;51.120;6.192;2022-11-27T12:12:00;4.17;;;2.20;;
18102;SDS011;9178;51.120;6.192;2022-11-27T12:14:35;2.93;;;1.60;;
18102;SDS011;9178;51.120;6.192;2022-11-27T12:17:12;3.13;;;1.77;;
18102;SDS011;9178;51.120;6.192;2022-11-27T12:19:59;3.77;;;2.00;;
18102;SDS011;9178;51.120;6.192;2022-11-27T12:22:38;2.73;;;2.07;;
18102;SDS011;9178;51.120;6.192;2022-11-27T12:25:23;4.53;;;2.10;;
18102;SDS011;9178;51.120;6.192;2022-11-27T12:28:01;3.10;;;1.87;;
18102;SDS011;9178;51.120;6.192;2022-11-27T12:30:38;3.63;;;2.60;;
18102;SDS011;9178;51.120;6.192;2022-11-27T12:36:16;4.53;;;2.70;;
18102;SDS011;9178;51.120;6.192;2022-11-27T12:38:56;5.43;;;2.80;;
18102;SDS011;9178;51.120;6.192;2022-11-27T12:41:38;4.13;;;2.50;;
18102;SDS011;9178;51.120;6.192;2022-11-27T12:44:23;4.67;;;2.70;;
18102;SDS011;9178;51.120;6.192;2022-11-27T12:46:56;4.00;;;2.43;;
18102;SDS011;9178;51.120;6.192;2022-11-27T12:49:26;5.93;;;3.50;;
18102;SDS011;9178;51.120;6.192;2022-11-27T12:52:00;4.40;;;2.60;;
18102;SDS011;9178;51.120;6.192;2022-11-27T12:54:31;2.77;;;2.10;;
18102;SDS011;9178;51.120;6.192;2022-11-27T12:57:05;3.60;;;2.23;;
18102;SDS011;9178;51.120;6.192;2022-11-27T12:59:37;2.10;;;1.70;;
18102;SDS011;9178;51.120;6.192;2022-11-27T13:02:11;2.13;;;1.63;;
18102;SDS011;9178;51.120;6.192;2022-11-27T13:04:50;2.63;;;1.67;;
18102;SDS011;9178;51.120;6.192;2022-11-27T13:07:21;2.80;;;1.90;;
18102;SDS011;9178;51.120;6.192;2022-11-27T13:09:53;2.90;;;2.23;;
18102;SDS011;9178;51.120;6.192;2022-11-27T13:12:26;2.00;;;1.73;;
18102;SDS011;9178;51.120;6.192;2022-11-27T13:14:57;2.40;;;1.90;;
18102;SDS011;9178;51.120;6.192;2022-11-27T13:17:32;3.03;;;2.03;;
18102;SDS011;9178;51.120;6.192;2022-11-27T13:20:02;3.63;;;2.50;;
18102;SDS011;9178;51.120;6.192;2022-11-27T13:22:40;4.73;;;1.90;;
18102;SDS011;9178;51.120;6.192;2022-11-27T13:25:09;3.37;;;1.63;;
18102;SDS011;9178;51.120;6.192;2022-11-27T13:27:38;3.67;;;1.80;;
18102;SDS011;9178;51.120;6.192;2022-11-27T13:30:15;3.83;;;1.80;;
18102;SDS011;9178;51.120;6.192;2022-11-27T13:32:47;4.23;;;3.00;;
18102;SDS011;9178;51.120;6.192;2022-11-27T13:35:19;2.50;;;1.83;;
18102;SDS011;9178;51.120;6.192;2022-11-27T13:37:53;3.67;;;2.03;;
18102;SDS011;9178;51.120;6.192;2022-11-27T13:40:22;3.13;;;2.00;;
18102;SDS011;9178;51.120;6.192;2022-11-27T13:42:54;2.60;;;1.90;;
18102;SDS011;9178;51.120;6.192;2022-11-27T13:45:24;3.20;;;2.00;;
18102;SDS011;9178;51.120;6.192;2022-11-27T13:47:53;3.80;;;1.83;;
18102;SDS011;9178;51.120;6.192;2022-11-27T13:50:22;2.47;;;1.80;;
18102;SDS011;9178;51.120;6.192;2022-11-27T13:52:51;5.57;;;3.87;;
18102;SDS011;9178;51.120;6.192;2022-11-27T13:55:22;4.47;;;2.60;;
18102;SDS011;9178;51.120;6.192;2022-11-27T13:57:51;4.53;;;2.50;;
18102;SDS011;9178;51.120;6.192;2022-11-27T14:00:29;3.87;;;2.17;;
18102;SDS011;9178;51.120;6.192;2022-11-27T14:02:57;3.20;;;2.33;;
18102;SDS011;9178;51.120;6.192;2022-11-27T14:05:33;5.93;;;3.90;;
18102;SDS011;9178;51.120;6.192;2022-11-27T14:08:03;3.93;;;3.00;;
18102;SDS011;9178;51.120;6.192;2022-11-27T14:10:47;3.03;;;2.33;;
18102;SDS011;9178;51.120;6.192;2022-11-27T14:13:16;3.13;;;2.60;;
18102;SDS011;9178;51.120;6.192;2022-11-27T14:15:43;3.00;;;2.20;;
18102;SDS011;9178;51.120;6.192;2022-11-27T14:18:25;3.10;;;2.03;;
18102;SDS011;9178;51.120;6.192;2022-11-27T14:20:55;4.03;;;2.00;;
18102;SDS011;9178;51.120;6.192;2022-11-27T14:23:32;4.03;;;3.03;;
18102;SDS011;9178;51.120;6.192;2022-11-27T14:26:03;5.97;;;2.57;;
18102;SDS011;9178;51.120;6.192;2022-11-27T14:28:33;3.53;;;2.20;;
18102;SDS011;9178;51.120;6.192;2022-11-27T14:31:02;5.17;;;2.10;;
18102;SDS011;9178;51.120;6.192;2022-11-27T14:33:30;3.10;;;1.73;;
18102;SDS011;9178;51.120;6.192;2022-11-27T14:35:59;3.33;;;1.80;;
18102;SDS011;9178;51.120;6.192;2022-11-27T14:38:27;4.93;;;2.00;;
18102;SDS011;9178;51.120;6.192;2022-11-27T14:41:07;3.23;;;2.03;;
18102;SDS011;9178;51.120;6.192;2022-11-27T14:43:35;3.50;;;1.80;;
18102;SDS011;9178;51.120;6.192;2022-11-27T14:46:02;5.17;;;2.43;;
18102;SDS011;9178;51.120;6.192;2022-11-27T14:48:33;3.57;;;2.57;;
18102;SDS011;9178;51.120;6.192;2022-11-27T14:51:08;4.57;;;2.83;;
18102;SDS011;9178;51.120;6.192;2022-11-27T14:53:42;4.47;;;2.50;;
18102;SDS011;9178;51.120;6.192;2022-11-27T14:56:11;4.30;;;3.30;;
18102;SDS011;9178;51.120;6.192;2022-11-27T14:58:45;3.40;;;2.20;;
18102;SDS011;9178;51.120;6.192;2022-11-27T15:01:19;3.90;;;2.27;;
18102;SDS011;9178;51.120;6.192;2022-11-27T15:03:53;1.80;;;1.63;;
18102;SDS011;9178;51.120;6.192;2022-11-27T15:06:21;1.80;;;1.57;;
18102;SDS011;9178;51.120;6.192;2022-11-27T15:08:50;2.57;;;1.40;;
18102;SDS011;9178;51.120;6.192;2022-11-27T15:11:19;3.17;;;1.90;;
18102;SDS011;9178;51.120;6.192;2022-11-27T15:13:48;3.27;;;2.40;;
18102;SDS011;9178;51.120;6.192;2022-11-27T15:16:19;3.07;;;1.97;;
18102;SDS011;9178;51.120;6.192;2022-11-27T15:18:49;1.67;;;1.53;;
18102;SDS011;9178;51.120;6.192;2022-11-27T15:21:20;1.80;;;1.70;;